createdAt,value
2023-03-10T00:01:57.472Z,35.67
2023-03-10T00:04:59.847Z,35.93
2023-03-10T00:08:01.854Z,35.90
2023-03-10T00:11:04.260Z,37.47
2023-03-10T00:14:06.281Z,38.43
2023-03-10T00:17:08.652Z,39.43
2023-03-10T00:20:12.772Z,38.60
2023-03-10T00:23:15.067Z,40.40
2023-03-10T00:26:18.851Z,41.70
2023-03-10T00:29:22.098Z,39.03
2023-03-10T00:32:24.164Z,41.70
2023-03-10T00:35:26.811Z,41.40
2023-03-10T00:38:29.383Z,41.77
2023-03-10T00:41:39.662Z,42.03
2023-03-10T00:44:41.647Z,41.17
2023-03-10T00:47:44.016Z,42.03
2023-03-10T00:50:46.665Z,40.70
2023-03-10T00:53:49.653Z,38.93
2023-03-10T00:56:51.656Z,43.27
2023-03-10T00:59:53.913Z,44.40
2023-03-10T01:02:55.976Z,43.77
2023-03-10T01:05:58.489Z,45.07
2023-03-10T01:09:00.845Z,45.13
2023-03-10T01:12:03.341Z,43.33
2023-03-10T01:15:06.310Z,43.13
2023-03-10T01:18:08.704Z,40.20
2023-03-10T01:21:19.939Z,41.80
2023-03-10T01:24:22.277Z,40.97
2023-03-10T01:27:24.321Z,41.87
2023-03-10T01:30:26.700Z,40.83
2023-03-10T01:33:28.704Z,40.23
2023-03-10T01:36:31.026Z,38.80
2023-03-10T01:39:33.010Z,37.70
2023-03-10T01:42:35.438Z,38.23
2023-03-10T01:45:37.380Z,37.93
2023-03-10T01:48:39.829Z,37.37
2023-03-10T01:51:47.757Z,36.37
2023-03-10T01:55:01.025Z,36.23
2023-03-10T01:58:05.703Z,35.57
2023-03-10T02:01:10.670Z,35.70
2023-03-10T02:04:38.736Z,33.83
2023-03-10T02:07:43.063Z,34.17
2023-03-10T02:10:46.487Z,35.53
2023-03-10T02:13:49.296Z,33.43
2023-03-10T02:16:51.396Z,33.40
2023-03-10T02:19:56.523Z,33.03
2023-03-10T02:22:58.691Z,33.60
2023-03-10T02:26:19.910Z,34.87
2023-03-10T02:29:30.908Z,34.17
2023-03-10T02:32:35.557Z,36.03
2023-03-10T02:35:37.704Z,35.00
2023-03-10T02:38:40.052Z,34.80
2023-03-10T02:41:45.414Z,33.03
2023-03-10T02:44:49.420Z,35.10
2023-03-10T02:47:51.420Z,34.90
2023-03-10T02:50:53.999Z,33.17
2023-03-10T02:53:57.443Z,35.00
2023-03-10T02:56:59.836Z,35.03
2023-03-10T03:00:02.556Z,35.57
2023-03-10T03:03:05.604Z,35.37
2023-03-10T03:06:08.338Z,34.67
2023-03-10T03:09:10.697Z,36.23
2023-03-10T03:12:12.716Z,36.33
2023-03-10T03:15:14.992Z,36.70
2023-03-10T03:18:17.181Z,35.53
2023-03-10T03:21:19.573Z,34.83
2023-03-10T03:24:21.856Z,36.00
2023-03-10T03:27:24.146Z,37.63
2023-03-10T03:30:28.399Z,36.80
2023-03-10T03:33:30.674Z,35.40
2023-03-10T03:36:32.961Z,37.23
2023-03-10T03:39:35.335Z,38.23
2023-03-10T03:42:37.593Z,37.73
2023-03-10T03:45:40.036Z,35.60
2023-03-10T03:48:42.138Z,34.83
2023-03-10T03:51:44.424Z,37.50
2023-03-10T03:54:46.411Z,35.97
2023-03-10T03:57:48.803Z,36.17
2023-03-10T04:00:51.828Z,36.97
2023-03-10T04:03:54.412Z,36.00
2023-03-10T04:06:56.523Z,36.57
2023-03-10T04:09:59.350Z,35.57
2023-03-10T04:13:01.406Z,37.63
2023-03-10T04:16:03.990Z,35.90
2023-03-10T04:19:08.001Z,36.77
2023-03-10T04:22:10.392Z,37.13
2023-03-10T04:25:12.650Z,38.60
2023-03-10T04:28:14.942Z,38.87
2023-03-10T04:31:19.174Z,41.27
2023-03-10T04:34:21.470Z,40.10
2023-03-10T04:37:23.659Z,39.37
2023-03-10T04:40:25.962Z,41.33
2023-03-10T04:43:27.978Z,39.53
2023-03-10T04:46:31.892Z,40.97
2023-03-10T04:49:33.981Z,40.70
2023-03-10T04:52:36.361Z,41.40
2023-03-10T04:55:38.757Z,42.97
2023-03-10T04:58:41.160Z,42.03
2023-03-10T05:01:43.427Z,41.07
2023-03-10T05:04:45.899Z,43.27
2023-03-10T05:07:47.977Z,41.07
2023-03-10T05:10:52.910Z,43.17
2023-03-10T05:13:54.913Z,39.97
2023-03-10T05:16:57.859Z,42.20
2023-03-10T05:19:59.882Z,40.97
2023-03-10T05:23:02.293Z,40.70
2023-03-10T05:26:09.312Z,38.63
2023-03-10T05:29:11.634Z,40.83
2023-03-10T05:32:13.639Z,40.03
2023-03-10T05:35:16.000Z,40.60
2023-03-10T05:38:19.627Z,40.77
2023-03-10T05:41:22.033Z,40.90
2023-03-10T05:44:24.047Z,40.80
2023-03-10T05:47:26.422Z,39.17
2023-03-10T05:50:29.283Z,40.17
2023-03-10T05:53:32.844Z,41.50
2023-03-10T05:56:34.986Z,38.17
2023-03-10T05:59:37.321Z,40.63
2023-03-10T06:02:41.795Z,40.80
2023-03-10T06:05:44.227Z,42.13
2023-03-10T06:08:46.443Z,40.87
2023-03-10T06:11:48.713Z,40.47
2023-03-10T06:14:50.814Z,40.13
2023-03-10T06:17:53.127Z,41.17
2023-03-10T06:20:55.655Z,40.93
2023-03-10T06:23:59.141Z,41.63
2023-03-10T06:27:01.153Z,40.90
2023-03-10T06:30:03.724Z,40.63
2023-03-10T06:33:05.932Z,40.93
2023-03-10T06:36:10.305Z,41.20
2023-03-10T06:39:12.685Z,41.90
2023-03-10T06:42:14.988Z,40.60
2023-03-10T06:45:17.691Z,40.17
2023-03-10T06:48:20.032Z,40.53
2023-03-10T06:51:22.665Z,41.10
2023-03-10T06:54:25.065Z,39.03
2023-03-10T06:57:27.431Z,39.03
2023-03-10T07:00:29.954Z,39.60
2023-03-10T07:03:32.170Z,38.03
2023-03-10T07:06:34.444Z,37.43
2023-03-10T07:09:36.447Z,37.83
2023-03-10T07:12:38.753Z,37.93
2023-03-10T07:15:40.895Z,37.60
2023-03-10T07:18:43.751Z,38.00
2023-03-10T07:21:45.754Z,36.97
2023-03-10T07:24:47.987Z,35.17
2023-03-10T07:27:50.295Z,34.47
2023-03-10T07:30:55.097Z,33.90
2023-03-10T07:33:57.186Z,34.03
2023-03-10T07:36:59.470Z,32.60
2023-03-10T07:40:01.481Z,31.93
2023-03-10T07:43:05.373Z,31.80
2023-03-10T07:46:09.718Z,30.90
2023-03-10T07:49:12.092Z,28.90
2023-03-10T07:52:15.612Z,27.97
2023-03-10T07:55:18.325Z,32.83
2023-03-10T07:58:20.817Z,22.47
2023-03-10T08:01:23.281Z,20.97
2023-03-10T08:04:25.559Z,19.33
2023-03-10T08:07:28.115Z,17.80
2023-03-10T08:10:30.238Z,14.63
2023-03-10T08:13:33.318Z,12.23
2023-03-10T08:16:35.664Z,11.93
2023-03-10T08:19:39.159Z,13.80
2023-03-10T08:22:41.419Z,18.23
2023-03-10T08:25:43.721Z,11.93
2023-03-10T08:28:46.146Z,9.80
2023-03-10T08:31:48.773Z,10.60
2023-03-10T08:34:50.924Z,13.97
2023-03-10T08:37:55.326Z,16.40
2023-03-10T08:40:57.859Z,27.77
2023-03-10T08:44:01.188Z,13.23
2023-03-10T08:47:03.634Z,23.07
2023-03-10T08:50:07.639Z,24.97
2023-03-10T08:53:09.787Z,15.60
2023-03-10T08:56:12.289Z,13.17
2023-03-10T08:59:14.401Z,10.03
2023-03-10T09:02:17.395Z,7.37
2023-03-10T09:05:21.689Z,7.50
2023-03-10T09:08:27.016Z,10.53
2023-03-10T09:11:32.413Z,9.73
2023-03-10T09:14:38.400Z,7.20
2023-03-10T09:17:41.034Z,6.87
2023-03-10T09:20:46.527Z,10.80
2023-03-10T09:23:50.100Z,7.97
2023-03-10T09:26:52.540Z,6.90
2023-03-10T09:29:54.550Z,6.23
2023-03-10T09:32:57.035Z,6.10
2023-03-10T09:36:08.083Z,5.87
2023-03-10T09:39:10.577Z,4.77
2023-03-10T09:42:38.781Z,4.67
2023-03-10T09:46:02.301Z,4.93
2023-03-10T09:49:31.043Z,5.00
2023-03-10T09:52:45.271Z,4.27
2023-03-10T09:55:49.009Z,4.00
2023-03-10T09:59:24.466Z,5.90
2023-03-10T10:02:32.213Z,4.27
2023-03-10T10:05:35.789Z,5.97
2023-03-10T10:08:41.389Z,4.23
2023-03-10T10:11:43.843Z,4.60
2023-03-10T10:14:55.267Z,6.40
2023-03-10T10:18:17.850Z,3.60
2023-03-10T10:21:42.889Z,6.70
2023-03-10T10:25:13.363Z,4.00
2023-03-10T10:28:41.823Z,3.60
2023-03-10T10:32:06.292Z,3.60
2023-03-10T10:35:15.878Z,3.77
2023-03-10T10:38:24.815Z,3.43
2023-03-10T10:41:32.090Z,3.75
2023-03-10T10:44:41.459Z,4.28
2023-03-10T10:47:49.854Z,5.93
2023-03-10T10:50:56.597Z,4.65
2023-03-10T10:54:04.451Z,4.13
2023-03-10T10:57:20.070Z,6.75
2023-03-10T11:00:34.877Z,3.80
2023-03-10T11:03:40.039Z,2.83
2023-03-10T11:06:42.151Z,4.57
2023-03-10T11:09:44.533Z,4.97
2023-03-10T11:12:56.650Z,5.43
2023-03-10T11:16:11.545Z,2.55
2023-03-10T11:19:35.251Z,3.10
2023-03-10T11:22:49.970Z,4.47
2023-03-10T11:25:59.275Z,4.43
2023-03-10T11:29:14.779Z,3.58
2023-03-10T11:32:43.468Z,4.32
2023-03-10T11:35:53.369Z,2.75
2023-03-10T11:39:20.979Z,2.42
2023-03-10T11:42:48.033Z,2.28
2023-03-10T11:45:55.382Z,4.57
2023-03-10T11:49:16.267Z,7.85
2023-03-10T11:52:20.272Z,3.50
2023-03-10T11:55:23.121Z,4.22
2023-03-10T11:58:34.116Z,3.83
2023-03-10T12:01:57.305Z,3.03
2023-03-10T12:05:17.320Z,6.25
2023-03-10T12:08:22.657Z,6.50
2023-03-10T12:11:27.263Z,4.03
2023-03-10T12:14:30.560Z,3.38
2023-03-10T12:17:32.677Z,4.13
2023-03-10T12:20:35.775Z,11.48
2023-03-10T12:24:04.962Z,5.68
2023-03-10T12:27:07.336Z,4.82
2023-03-10T12:30:43.707Z,3.15
2023-03-10T12:33:49.272Z,5.05
2023-03-10T12:37:02.855Z,3.00
2023-03-10T12:40:50.786Z,3.00
2023-03-10T12:44:16.434Z,2.42
2023-03-10T12:47:46.708Z,3.15
2023-03-10T12:51:06.014Z,5.05
2023-03-10T12:54:21.287Z,3.03
2023-03-10T12:57:34.012Z,4.38
2023-03-10T13:00:43.858Z,3.10
2023-03-10T13:03:55.441Z,3.70
2023-03-10T13:07:04.131Z,3.10
2023-03-10T13:10:15.965Z,2.80
2023-03-10T13:13:18.358Z,2.60
2023-03-10T13:16:21.307Z,3.13
2023-03-10T13:19:25.843Z,4.18
2023-03-10T13:22:28.597Z,10.07
2023-03-10T13:25:32.683Z,6.60
2023-03-10T13:28:35.769Z,8.73
2023-03-10T13:31:38.209Z,10.40
2023-03-10T13:34:40.197Z,9.23
2023-03-10T13:37:42.571Z,12.65
2023-03-10T13:40:50.317Z,16.15
2023-03-10T13:43:54.499Z,9.55
2023-03-10T13:47:01.902Z,10.13
2023-03-10T13:50:04.541Z,6.43
2023-03-10T13:53:06.569Z,5.57
2023-03-10T13:56:34.425Z,6.55
2023-03-10T13:59:37.543Z,8.63
2023-03-10T14:02:41.513Z,6.38
2023-03-10T14:05:48.640Z,9.63
2023-03-10T14:08:52.247Z,8.20
2023-03-10T14:11:54.315Z,8.95
2023-03-10T14:15:29.490Z,10.18
2023-03-10T14:18:39.346Z,7.45
2023-03-10T14:21:59.961Z,9.50
2023-03-10T14:25:18.958Z,16.08
2023-03-10T14:28:27.579Z,10.73
2023-03-10T14:31:29.845Z,11.68
2023-03-10T14:34:32.161Z,7.30
2023-03-10T14:37:35.396Z,15.27
2023-03-10T14:40:43.772Z,6.53
2023-03-10T14:43:45.954Z,6.63
2023-03-10T14:46:53.031Z,19.03
2023-03-10T14:49:55.284Z,14.60
2023-03-10T14:52:57.568Z,10.80
2023-03-10T14:56:02.028Z,6.57
2023-03-10T14:59:06.613Z,3.53
2023-03-10T15:02:20.416Z,3.40
2023-03-10T15:05:34.612Z,2.10
2023-03-10T15:08:40.895Z,2.77
2023-03-10T15:11:43.407Z,3.27
2023-03-10T15:14:52.637Z,3.13
2023-03-10T15:17:55.035Z,3.87
2023-03-10T15:21:01.381Z,7.60
2023-03-10T15:24:07.544Z,13.77
2023-03-10T15:27:14.339Z,21.00
2023-03-10T15:30:23.898Z,20.33
2023-03-10T15:33:25.926Z,19.50
2023-03-10T15:36:28.223Z,10.93
2023-03-10T15:39:32.347Z,6.70
2023-03-10T15:42:35.909Z,25.17
2023-03-10T15:45:43.935Z,13.00
2023-03-10T15:48:46.367Z,11.03
2023-03-10T15:51:48.511Z,13.47
2023-03-10T15:54:50.876Z,10.23
2023-03-10T15:57:53.972Z,10.23
2023-03-10T16:00:56.571Z,9.43
2023-03-10T16:04:01.656Z,9.43
2023-03-10T16:07:05.114Z,8.13
2023-03-10T16:10:10.456Z,7.23
2023-03-10T16:13:12.740Z,7.57
2023-03-10T16:16:18.227Z,8.10
2023-03-10T16:19:21.183Z,7.90
2023-03-10T16:22:23.679Z,9.33
2023-03-10T16:25:26.000Z,12.40
2023-03-10T16:28:28.091Z,12.20
2023-03-10T16:31:30.610Z,14.50
2023-03-10T16:34:32.686Z,17.70
2023-03-10T16:37:35.060Z,19.23
2023-03-10T16:40:37.134Z,22.90
2023-03-10T16:43:40.351Z,22.97
2023-03-10T16:46:43.813Z,19.97
2023-03-10T16:49:46.140Z,21.67
2023-03-10T16:52:48.703Z,22.13
2023-03-10T16:55:51.528Z,27.03
2023-03-10T16:58:54.057Z,33.60
2023-03-10T17:01:56.409Z,27.40
2023-03-10T17:04:58.416Z,19.50
2023-03-10T17:08:04.962Z,16.93
2023-03-10T17:11:17.851Z,14.40
2023-03-10T17:14:21.240Z,14.47
2023-03-10T17:17:23.765Z,9.00
2023-03-10T17:20:26.262Z,9.60
2023-03-10T17:23:28.229Z,11.60
2023-03-10T17:26:30.936Z,12.00
2023-03-10T17:29:33.249Z,11.83
2023-03-10T17:32:37.094Z,15.33
2023-03-10T17:35:39.352Z,13.03
2023-03-10T17:38:42.701Z,13.67
2023-03-10T17:41:44.832Z,16.13
2023-03-10T17:44:47.250Z,17.97
2023-03-10T17:47:49.501Z,23.70
2023-03-10T17:50:52.239Z,19.67
2023-03-10T17:53:57.544Z,18.30
2023-03-10T17:56:59.920Z,18.67
2023-03-10T18:00:02.157Z,21.50
2023-03-10T18:03:04.650Z,27.53
2023-03-10T18:06:16.313Z,20.70
2023-03-10T18:09:18.604Z,32.67
2023-03-10T18:12:20.612Z,17.43
2023-03-10T18:15:23.053Z,16.70
2023-03-10T18:18:25.431Z,16.60
2023-03-10T18:21:28.273Z,21.70
2023-03-10T18:24:30.312Z,22.57
2023-03-10T18:27:33.444Z,22.20
2023-03-10T18:30:35.415Z,23.10
2023-03-10T18:33:37.955Z,22.50
2023-03-10T18:36:40.755Z,19.03
2023-03-10T18:39:43.137Z,18.87
2023-03-10T18:42:45.574Z,17.13
2023-03-10T18:45:48.345Z,18.17
2023-03-10T18:48:55.837Z,19.27
2023-03-10T18:51:58.279Z,18.40
2023-03-10T18:55:01.194Z,17.30
2023-03-10T18:58:03.890Z,17.50
2023-03-10T19:01:15.556Z,17.90
2023-03-10T19:04:19.179Z,18.10
2023-03-10T19:07:21.521Z,89.40
2023-03-10T19:10:25.455Z,35.20
2023-03-10T19:13:29.025Z,31.57
2023-03-10T19:16:42.705Z,36.00
2023-03-10T19:19:44.779Z,25.30
2023-03-10T19:22:52.242Z,21.67
2023-03-10T19:25:54.912Z,20.23
2023-03-10T19:28:57.259Z,31.80
2023-03-10T19:31:59.474Z,23.57
2023-03-10T19:35:05.221Z,20.53
2023-03-10T19:38:07.239Z,20.07
2023-03-10T19:41:16.216Z,22.00
2023-03-10T19:44:18.364Z,33.03
2023-03-10T19:47:20.705Z,27.70
2023-03-10T19:50:23.659Z,25.37
2023-03-10T19:53:27.772Z,24.97
2023-03-10T19:56:30.873Z,24.80
2023-03-10T19:59:33.850Z,22.07
2023-03-10T20:02:35.940Z,17.97
2023-03-10T20:05:38.407Z,17.53
2023-03-10T20:08:40.722Z,21.70
2023-03-10T20:11:43.122Z,21.50
2023-03-10T20:14:45.119Z,25.20
2023-03-10T20:17:47.612Z,24.30
2023-03-10T20:20:50.333Z,25.53
2023-03-10T20:23:55.494Z,29.90
2023-03-10T20:27:00.194Z,23.90
2023-03-10T20:30:06.277Z,26.17
2023-03-10T20:33:08.432Z,28.23
2023-03-10T20:36:13.938Z,28.00
2023-03-10T20:39:16.003Z,27.97
2023-03-10T20:42:18.402Z,27.10
2023-03-10T20:45:21.903Z,26.53
2023-03-10T20:48:24.195Z,31.00
2023-03-10T20:51:26.271Z,31.70
2023-03-10T20:54:28.747Z,34.33
2023-03-10T20:57:31.971Z,36.50
2023-03-10T21:00:34.500Z,34.27
2023-03-10T21:03:36.507Z,39.73
2023-03-10T21:06:38.767Z,43.77
2023-03-10T21:09:40.852Z,48.50
2023-03-10T21:12:44.085Z,58.60
2023-03-10T21:15:46.082Z,60.33
2023-03-10T21:18:48.354Z,64.27
2023-03-10T21:21:50.438Z,99.33
2023-03-10T21:24:53.227Z,59.40
2023-03-10T21:27:59.013Z,43.53
2023-03-10T21:31:01.503Z,40.63
2023-03-10T21:34:04.475Z,34.57
2023-03-10T21:37:08.582Z,36.33
2023-03-10T21:40:14.880Z,33.23
2023-03-10T21:43:18.310Z,30.17
2023-03-10T21:46:20.432Z,29.67
2023-03-10T21:49:22.770Z,46.43
2023-03-10T21:52:24.878Z,43.07
2023-03-10T21:55:28.740Z,38.93
2023-03-10T21:58:30.779Z,40.10
2023-03-10T22:01:33.488Z,34.10
2023-03-10T22:04:35.665Z,28.43
2023-03-10T22:07:38.673Z,28.27
2023-03-10T22:10:40.711Z,24.03
2023-03-10T22:13:43.155Z,20.00
2023-03-10T22:16:45.129Z,22.07
2023-03-10T22:19:49.562Z,29.77
2023-03-10T22:22:51.898Z,25.17
2023-03-10T22:25:55.462Z,25.40
2023-03-10T22:28:57.432Z,11.10
2023-03-10T22:31:59.701Z,10.83
2023-03-10T22:35:02.139Z,10.70
2023-03-10T22:38:05.494Z,10.00
2023-03-10T22:41:12.083Z,9.70
2023-03-10T22:44:14.436Z,8.43
2023-03-10T22:47:17.863Z,7.73
2023-03-10T22:50:26.951Z,7.17
2023-03-10T22:53:28.989Z,7.67
2023-03-10T22:56:31.290Z,7.87
2023-03-10T22:59:33.351Z,8.43
2023-03-10T23:02:35.675Z,8.30
2023-03-10T23:05:38.111Z,8.13
2023-03-10T23:08:43.509Z,7.77
2023-03-10T23:11:46.646Z,8.73
2023-03-10T23:14:48.967Z,7.20
2023-03-10T23:17:51.578Z,6.43
2023-03-10T23:20:53.880Z,5.73
2023-03-10T23:23:56.165Z,7.10
2023-03-10T23:26:58.422Z,7.33
2023-03-10T23:30:00.439Z,7.23
2023-03-10T23:33:03.683Z,6.63
2023-03-10T23:36:06.078Z,7.37
2023-03-10T23:39:11.190Z,6.87
2023-03-10T23:42:13.219Z,6.80
2023-03-10T23:45:18.540Z,6.40
2023-03-10T23:48:21.686Z,7.30
2023-03-10T23:51:24.182Z,6.67
2023-03-10T23:54:28.090Z,8.43
2023-03-10T23:57:30.322Z,7.10
